createdAt,value
2022-11-16T00:01:06.406Z,96994.72
2022-11-16T00:03:33.590Z,96988.78
2022-11-16T00:06:03.260Z,96990.41
2022-11-16T00:08:31.241Z,96985.94
2022-11-16T00:11:05.586Z,96967.69
2022-11-16T00:13:33.535Z,96975.06
2022-11-16T00:16:00.753Z,96967.28
2022-11-16T00:18:28.233Z,96968.13
2022-11-16T00:20:55.485Z,96948.44
2022-11-16T00:23:22.597Z,96948.25
2022-11-16T00:25:49.712Z,96943.75
2022-11-16T00:28:16.804Z,96941.28
2022-11-16T00:30:43.887Z,96940.47
2022-11-16T00:33:14.328Z,96940.28
2022-11-16T00:35:41.818Z,96938.63
2022-11-16T00:38:08.985Z,96946.81
2022-11-16T00:40:35.990Z,96943.16
2022-11-16T00:43:03.054Z,96941.50
2022-11-16T00:45:30.157Z,96943.97
2022-11-16T00:48:00.460Z,96941.13
2022-11-16T00:50:28.566Z,96949.31
2022-11-16T00:52:55.684Z,96955.63
2022-11-16T00:55:23.680Z,96957.91
2022-11-16T00:57:50.711Z,96958.09
2022-11-16T01:00:19.933Z,96964.44
2022-11-16T01:02:47.256Z,96963.63
2022-11-16T01:05:14.282Z,96968.56
2022-11-16T01:07:41.595Z,96964.66
2022-11-16T01:10:13.925Z,96968.75
2022-11-16T01:12:43.277Z,96963.81
2022-11-16T01:15:10.670Z,96959.75
2022-11-16T01:17:38.932Z,96951.34
2022-11-16T01:20:07.452Z,96945.00
2022-11-16T01:22:35.011Z,96944.41
2022-11-16T01:25:02.444Z,96952.59
2022-11-16T01:27:29.531Z,96946.84
2022-11-16T01:30:00.571Z,96952.38
2022-11-16T01:32:27.746Z,96946.84
2022-11-16T01:34:54.979Z,96952.81
2022-11-16T01:37:28.251Z,96943.59
2022-11-16T01:39:55.438Z,96948.31
2022-11-16T01:42:27.197Z,96952.19
2022-11-16T01:44:57.010Z,96936.22
2022-11-16T01:47:24.229Z,96935.59
2022-11-16T01:49:54.465Z,96930.47
2022-11-16T01:52:29.723Z,96930.72
2022-11-16T01:54:57.300Z,96941.94
2022-11-16T01:57:31.769Z,96926.78
2022-11-16T02:00:10.472Z,96936.63
2022-11-16T02:03:03.818Z,96921.69
2022-11-16T02:05:47.810Z,96924.56
2022-11-16T02:08:53.046Z,96925.16
2022-11-16T02:11:45.994Z,96922.72
2022-11-16T02:14:21.892Z,96926.41
2022-11-16T02:17:04.487Z,96918.63
2022-11-16T02:19:49.640Z,96918.63
2022-11-16T02:22:37.044Z,96914.53
2022-11-16T02:25:23.077Z,96911.66
2022-11-16T02:28:13.670Z,96918.44
2022-11-16T02:30:43.541Z,96915.78
2022-11-16T02:33:12.951Z,96915.78
2022-11-16T02:35:43.524Z,96916.59
2022-11-16T02:38:30.227Z,96907.56
2022-11-16T02:41:01.598Z,96910.84
2022-11-16T02:43:56.689Z,96918.63
2022-11-16T02:46:29.932Z,96913.94
2022-11-16T02:48:59.484Z,96915.78
2022-11-16T02:51:27.707Z,96912.50
2022-11-16T02:54:02.740Z,96914.13
2022-11-16T02:59:48.781Z,96912.50
2022-11-16T03:02:16.174Z,96914.13
2022-11-16T03:04:48.721Z,96925.59
2022-11-16T03:07:18.642Z,96925.78
2022-11-16T03:09:48.546Z,96917.63
2022-11-16T03:12:18.345Z,96925.63
2022-11-16T03:14:58.248Z,96917.81
2022-11-16T03:17:28.679Z,96914.97
2022-11-16T03:19:59.274Z,96915.16
2022-11-16T03:22:28.642Z,96907.56
2022-11-16T03:24:55.709Z,96918.22
2022-11-16T03:27:53.892Z,96914.97
2022-11-16T03:30:24.205Z,96903.28
2022-11-16T03:32:56.587Z,96894.50
2022-11-16T03:35:25.903Z,96900.84
2022-11-16T03:37:54.651Z,96896.34
2022-11-16T03:40:24.262Z,96893.06
2022-11-16T03:42:52.097Z,96897.34
2022-11-16T03:45:20.299Z,96891.22
2022-11-16T03:47:49.403Z,96902.69
2022-11-16T03:50:16.492Z,96909.22
2022-11-16T03:52:44.075Z,96917.84
2022-11-16T03:55:13.001Z,96940.94
2022-11-16T03:57:42.071Z,96955.28
2022-11-16T04:00:09.427Z,96967.16
2022-11-16T04:02:43.070Z,96957.53
2022-11-16T04:05:34.998Z,96952.22
2022-11-16T04:08:20.715Z,96932.13
2022-11-16T04:11:06.703Z,96936.25
2022-11-16T04:13:53.778Z,96925.59
2022-11-16T04:16:39.548Z,96940.53
2022-11-16T04:19:28.086Z,96946.25
2022-11-16T04:22:37.156Z,96953.22
2022-11-16T04:25:12.449Z,96953.84
2022-11-16T04:27:58.593Z,96955.06
2022-11-16T04:30:26.227Z,96959.56
2022-11-16T04:33:12.188Z,96953.22
2022-11-16T04:35:58.497Z,96954.44
2022-11-16T04:38:25.653Z,96964.47
2022-11-16T04:40:53.068Z,96981.66
2022-11-16T04:43:22.356Z,96980.03
2022-11-16T04:46:07.861Z,96977.78
2022-11-16T04:48:39.482Z,96975.34
2022-11-16T04:51:07.206Z,96984.34
2022-11-16T04:53:35.031Z,96986.00
2022-11-16T04:56:11.352Z,96983.13
2022-11-16T04:58:38.500Z,96981.47
2022-11-16T05:01:05.824Z,96982.94
2022-11-16T05:03:33.432Z,96992.34
2022-11-16T05:06:01.471Z,96985.59
2022-11-16T05:08:29.268Z,96985.59
2022-11-16T05:10:56.794Z,96988.25
2022-11-16T05:13:23.794Z,96977.59
2022-11-16T05:15:52.569Z,96982.94
2022-11-16T05:18:19.719Z,96976.56
2022-11-16T05:21:02.605Z,96976.56
2022-11-16T05:23:53.882Z,96977.59
2022-11-16T05:26:23.203Z,96973.69
2022-11-16T05:28:51.480Z,96972.69
2022-11-16T05:31:18.675Z,96966.34
2022-11-16T05:33:45.739Z,96974.72
2022-11-16T05:36:14.751Z,96968.56
2022-11-16T05:38:41.834Z,96975.34
2022-11-16T05:41:09.136Z,96971.84
2022-11-16T05:43:36.641Z,96972.69
2022-11-16T05:46:12.007Z,96969.41
2022-11-16T05:48:39.540Z,96973.69
2022-11-16T05:51:07.262Z,96970.22
2022-11-16T05:53:35.066Z,96965.53
2022-11-16T05:56:02.608Z,96966.75
2022-11-16T05:58:32.898Z,96966.34
2022-11-16T06:01:00.607Z,96963.06
2022-11-16T06:03:28.608Z,96956.31
2022-11-16T06:05:56.224Z,96955.47
2022-11-16T06:08:25.565Z,96957.94
2022-11-16T06:10:54.105Z,96963.69
2022-11-16T06:13:21.400Z,96952.63
2022-11-16T06:15:51.789Z,96954.66
2022-11-16T06:18:19.302Z,96957.94
2022-11-16T06:20:47.646Z,96950.78
2022-11-16T06:23:14.910Z,96949.56
2022-11-16T06:25:42.529Z,96953.44
2022-11-16T06:28:10.476Z,96949.13
2022-11-16T06:30:40.156Z,96950.97
2022-11-16T06:33:08.892Z,96950.16
2022-11-16T06:35:37.174Z,96947.09
2022-11-16T06:38:04.778Z,96947.28
2022-11-16T06:40:33.129Z,96953.44
2022-11-16T06:43:01.830Z,96948.94
2022-11-16T06:45:28.933Z,96950.97
2022-11-16T06:47:58.981Z,96953.84
2022-11-16T06:50:26.952Z,96955.47
2022-11-16T06:52:54.090Z,96957.31
2022-11-16T06:55:22.691Z,96951.41
2022-11-16T06:57:49.767Z,96960.22
2022-11-16T07:00:18.034Z,96949.34
2022-11-16T07:02:46.177Z,96955.28
2022-11-16T07:05:16.463Z,96954.25
2022-11-16T07:07:44.842Z,96953.84
2022-11-16T07:10:12.571Z,96959.19
2022-11-16T07:12:39.972Z,96956.72
2022-11-16T07:15:10.876Z,96959.56
2022-11-16T07:17:41.310Z,96972.25
2022-11-16T07:20:08.877Z,96958.56
2022-11-16T07:22:35.994Z,96971.03
2022-11-16T07:25:03.848Z,96969.59
2022-11-16T07:27:30.967Z,96973.91
2022-11-16T07:29:58.837Z,96972.69
2022-11-16T07:32:49.426Z,96973.09
2022-11-16T07:35:26.226Z,96978.41
2022-11-16T07:37:53.352Z,96982.91
2022-11-16T07:40:20.554Z,96988.66
2022-11-16T07:42:47.775Z,96989.47
2022-11-16T07:45:35.167Z,96991.13
2022-11-16T07:48:07.147Z,96988.25
2022-11-16T07:50:52.831Z,96999.50
2022-11-16T07:53:21.169Z,96988.66
2022-11-16T07:55:51.792Z,96994.78
2022-11-16T07:58:19.208Z,96991.50
2022-11-16T08:00:46.638Z,96997.47
2022-11-16T08:03:21.788Z,96992.53
2022-11-16T08:05:57.893Z,97003.81
2022-11-16T08:08:24.953Z,97001.97
2022-11-16T08:10:52.498Z,97014.06
2022-11-16T08:13:19.624Z,97013.44
2022-11-16T08:15:47.560Z,97012.81
2022-11-16T08:18:14.659Z,97028.38
2022-11-16T08:20:41.786Z,97027.56
2022-11-16T08:23:08.904Z,97018.56
2022-11-16T08:25:37.427Z,97021.03
2022-11-16T08:28:04.570Z,97031.66
2022-11-16T08:30:32.354Z,97032.88
2022-11-16T08:33:00.278Z,97037.19
2022-11-16T08:35:27.418Z,97045.19
2022-11-16T08:37:54.520Z,97040.69
2022-11-16T08:40:21.646Z,97042.09
2022-11-16T08:42:48.811Z,97043.34
2022-11-16T08:45:17.767Z,97046.00
2022-11-16T08:47:45.645Z,97047.63
2022-11-16T08:50:12.880Z,97044.97
2022-11-16T08:52:39.949Z,97047.22
2022-11-16T08:55:07.810Z,97041.06
2022-11-16T08:57:35.067Z,97056.66
2022-11-16T09:00:06.761Z,97044.78
2022-11-16T09:02:33.827Z,97047.63
2022-11-16T09:05:01.052Z,97051.31
2022-11-16T09:07:28.193Z,97046.81
2022-11-16T09:09:55.339Z,97045.38
2022-11-16T09:12:22.378Z,97044.97
2022-11-16T09:14:49.392Z,97042.31
2022-11-16T09:17:20.316Z,97045.59
2022-11-16T09:19:49.918Z,97043.75
2022-11-16T09:22:16.954Z,97045.34
2022-11-16T09:24:44.152Z,97040.66
2022-11-16T09:27:11.232Z,97050.09
2022-11-16T09:29:38.254Z,97042.72
2022-11-16T09:32:05.289Z,97044.31
2022-11-16T09:34:35.095Z,97056.63
2022-11-16T09:37:02.456Z,97050.88
2022-11-16T09:39:32.463Z,97057.03
2022-11-16T09:42:21.430Z,97051.50
2022-11-16T09:44:48.539Z,97050.47
2022-11-16T09:47:17.806Z,97054.19
2022-11-16T09:49:51.403Z,97057.44
2022-11-16T09:52:26.904Z,97060.72
2022-11-16T09:54:55.921Z,97058.25
2022-11-16T09:57:27.494Z,97066.03
2022-11-16T09:59:57.588Z,97069.34
2022-11-16T10:02:32.164Z,97062.34
2022-11-16T10:05:14.565Z,97063.16
2022-11-16T10:07:46.677Z,97069.72
2022-11-16T10:10:15.023Z,97060.69
2022-11-16T10:12:48.911Z,97064.38
2022-11-16T10:15:41.310Z,97061.50
2022-11-16T10:18:15.435Z,97052.28
2022-11-16T10:20:49.757Z,97058.25
2022-11-16T10:23:32.021Z,97056.41
2022-11-16T10:26:17.851Z,97058.63
2022-11-16T10:29:05.676Z,97055.75
2022-11-16T10:31:38.831Z,97055.31
2022-11-16T10:34:07.088Z,97059.44
2022-11-16T10:36:35.970Z,97056.75
2022-11-16T10:39:03.176Z,97054.72
2022-11-16T10:41:32.974Z,97052.88
2022-11-16T10:44:00.030Z,97053.47
2022-11-16T10:46:37.159Z,97060.44
2022-11-16T10:49:04.227Z,97054.06
2022-11-16T10:51:31.341Z,97048.75
2022-11-16T10:53:58.441Z,97054.91
2022-11-16T10:56:37.365Z,97053.06
2022-11-16T10:59:05.633Z,97050.19
2022-11-16T11:01:40.127Z,97047.50
2022-11-16T11:04:13.274Z,97044.03
2022-11-16T11:06:40.842Z,97040.94
2022-11-16T11:09:14.785Z,97044.66
2022-11-16T11:12:00.406Z,97036.41
2022-11-16T11:14:27.540Z,97038.88
2022-11-16T11:16:54.636Z,97036.81
2022-11-16T11:19:26.274Z,97040.09
2022-11-16T11:21:57.955Z,97048.69
2022-11-16T11:27:13.429Z,97039.25
2022-11-16T11:29:42.378Z,97040.69
2022-11-16T11:32:23.593Z,97030.19
2022-11-16T11:34:52.781Z,97028.94
2022-11-16T11:37:25.241Z,97028.53
2022-11-16T11:40:17.555Z,97027.69
2022-11-16T11:42:51.840Z,97034.25
2022-11-16T11:45:19.808Z,97034.81
2022-11-16T11:48:13.951Z,97037.06
2022-11-16T11:50:53.047Z,97035.03
2022-11-16T11:53:29.193Z,97029.25
2022-11-16T11:55:58.262Z,97029.69
2022-11-16T11:58:30.566Z,97037.44
2022-11-16T12:01:18.414Z,97027.75
2022-11-16T12:03:55.336Z,97025.84
2022-11-16T12:06:43.636Z,97027.66
2022-11-16T12:09:17.177Z,97028.03
2022-11-16T12:12:01.462Z,97020.78
2022-11-16T12:14:47.753Z,97022.59
2022-11-16T12:17:27.535Z,97025.84
2022-11-16T12:19:59.422Z,97037.38
2022-11-16T12:22:40.459Z,97043.41
2022-11-16T12:25:27.833Z,97040.75
2022-11-16T12:28:13.837Z,97039.78
2022-11-16T12:30:59.052Z,97042.22
2022-11-16T12:33:38.270Z,97044.59
2022-11-16T12:36:17.763Z,97052.41
2022-11-16T12:38:44.830Z,97046.25
2022-11-16T12:41:11.874Z,97052.75
2022-11-16T12:43:53.939Z,97048.63
2022-11-16T12:46:33.391Z,97045.47
2022-11-16T12:49:17.167Z,97043.19
2022-11-16T12:52:03.482Z,97041.06
2022-11-16T12:54:48.018Z,97036.69
2022-11-16T12:57:34.172Z,97034.03
2022-11-16T13:00:01.464Z,97040.31
2022-11-16T13:02:30.191Z,97050.13
2022-11-16T13:05:02.899Z,97053.19
2022-11-16T13:07:39.578Z,97048.06
2022-11-16T13:10:13.699Z,97049.44
2022-11-16T13:12:41.361Z,97049.44
2022-11-16T13:15:19.028Z,97053.53
2022-11-16T13:17:50.258Z,97056.81
2022-11-16T13:20:17.311Z,97051.69
2022-11-16T13:22:51.889Z,97061.78
2022-11-16T13:25:24.489Z,97050.94
2022-11-16T13:28:04.043Z,97056.91
2022-11-16T13:30:56.472Z,97047.22
2022-11-16T13:33:32.771Z,97037.56
2022-11-16T13:36:19.796Z,97050.13
2022-11-16T13:38:53.234Z,97040.69
2022-11-16T13:41:37.248Z,97038.81
2022-11-16T13:44:13.521Z,97034.53
2022-11-16T13:46:55.936Z,97033.47
2022-11-16T13:49:26.965Z,97025.22
2022-11-16T13:52:07.046Z,97021.94
2022-11-16T13:54:47.823Z,97018.22
2022-11-16T13:57:23.898Z,97026.03
2022-11-16T13:59:55.948Z,97022.31
2022-11-16T14:02:31.960Z,97023.94
2022-11-16T14:04:59.120Z,97025.59
2022-11-16T14:07:30.867Z,97024.75
2022-11-16T14:09:58.013Z,97026.16
2022-11-16T14:12:37.263Z,97028.00
2022-11-16T14:15:13.376Z,97026.84
2022-11-16T14:17:59.449Z,97020.66
2022-11-16T14:20:44.696Z,97016.97
2022-11-16T14:23:26.942Z,97017.78
2022-11-16T14:26:06.128Z,97011.59
2022-11-16T14:28:33.114Z,97001.72
2022-11-16T14:31:00.185Z,97022.31
2022-11-16T14:33:35.133Z,97012.28
2022-11-16T14:36:04.344Z,97012.94
2022-11-16T14:38:38.826Z,97015.84
2022-11-16T14:41:07.116Z,97010.97
2022-11-16T14:43:38.780Z,97009.78
2022-11-16T14:46:20.364Z,97002.22
2022-11-16T14:48:47.397Z,97001.00
2022-11-16T14:51:14.426Z,96997.16
2022-11-16T14:53:45.349Z,97001.78
2022-11-16T14:56:13.941Z,96998.59
2022-11-16T14:58:50.168Z,97000.66
2022-11-16T15:01:17.914Z,96989.63
2022-11-16T15:03:47.978Z,96992.91
2022-11-16T15:06:15.679Z,96987.53
2022-11-16T15:08:48.346Z,96986.13
2022-11-16T15:11:47.049Z,96982.41
2022-11-16T15:14:22.345Z,96984.25
2022-11-16T15:16:51.057Z,96985.91
2022-11-16T15:19:18.289Z,96995.41
2022-11-16T15:21:55.951Z,97001.78
2022-11-16T15:24:30.479Z,96987.84
2022-11-16T15:27:21.111Z,96983.31
2022-11-16T15:29:48.190Z,96982.72
2022-11-16T15:32:18.330Z,96985.81
2022-11-16T15:34:53.118Z,96986.03
2022-11-16T15:37:29.175Z,96990.59
2022-11-16T15:40:00.638Z,96993.50
2022-11-16T15:42:28.113Z,96988.16
2022-11-16T15:44:55.998Z,96999.66
2022-11-16T15:47:23.586Z,96994.53
2022-11-16T15:49:52.979Z,96990.81
2022-11-16T15:52:38.688Z,97000.47
2022-11-16T15:55:05.849Z,96992.47
2022-11-16T15:57:32.962Z,96990.81
2022-11-16T16:00:00.079Z,96992.66
2022-11-16T16:02:28.758Z,96991.84
2022-11-16T16:04:55.956Z,96992.06
2022-11-16T16:07:36.067Z,96991.25
2022-11-16T16:10:18.565Z,96990.22
2022-11-16T16:12:52.970Z,96985.91
2022-11-16T16:15:23.033Z,96986.13
2022-11-16T16:17:50.735Z,96995.56
2022-11-16T16:20:19.397Z,96988.34
2022-11-16T16:22:46.684Z,96991.84
2022-11-16T16:25:30.385Z,96987.53
2022-11-16T16:27:58.279Z,96987.53
2022-11-16T16:30:25.654Z,96996.38
2022-11-16T16:32:52.925Z,96993.94
2022-11-16T16:35:21.647Z,96988.56
2022-11-16T16:37:50.099Z,96988.56
2022-11-16T16:40:17.759Z,96992.28
2022-11-16T16:42:48.022Z,96993.31
2022-11-16T16:45:18.464Z,96987.19
2022-11-16T16:47:45.653Z,96995.22
2022-11-16T16:50:12.872Z,96994.38
2022-11-16T16:52:39.947Z,96996.25
2022-11-16T16:55:07.107Z,96996.47
2022-11-16T16:57:34.123Z,96984.13
2022-11-16T17:00:01.249Z,96984.94
2022-11-16T17:02:28.397Z,96983.31
2022-11-16T17:04:55.438Z,96987.84
2022-11-16T17:07:22.510Z,96989.91
2022-11-16T17:09:49.706Z,96987.03
2022-11-16T17:12:16.769Z,96987.22
2022-11-16T17:14:51.186Z,96992.81
2022-11-16T17:17:19.394Z,96986.66
2022-11-16T17:19:46.618Z,96978.63
2022-11-16T17:22:13.995Z,96968.97
2022-11-16T17:24:41.259Z,96967.34
2022-11-16T17:27:08.286Z,96958.72
2022-11-16T17:29:35.436Z,96968.84
2022-11-16T17:32:04.176Z,96955.91
2022-11-16T17:34:31.534Z,96963.31
2022-11-16T17:36:58.622Z,96956.34
2022-11-16T17:39:25.689Z,96959.00
2022-11-16T17:41:52.777Z,96958.44
2022-11-16T17:44:21.905Z,96952.28
2022-11-16T17:46:49.512Z,96952.03
2022-11-16T17:49:16.637Z,96946.09
2022-11-16T17:51:44.268Z,96949.00
2022-11-16T17:54:11.381Z,96950.25
2022-11-16T17:56:38.635Z,96938.38
2022-11-16T17:59:05.730Z,96945.59
2022-11-16T18:01:33.138Z,96940.44
2022-11-16T18:04:01.361Z,96942.09
2022-11-16T18:06:28.465Z,96938.81
2022-11-16T18:08:56.884Z,96932.44
2022-11-16T18:11:25.234Z,96927.31
2022-11-16T18:13:53.988Z,96921.97
2022-11-16T18:16:22.582Z,96921.13
2022-11-16T18:18:54.579Z,96913.13
2022-11-16T18:21:21.605Z,96916.25
2022-11-16T18:23:48.676Z,96916.47
2022-11-16T18:26:17.244Z,96914.00
2022-11-16T18:28:45.021Z,96912.63
2022-11-16T18:31:13.925Z,96910.16
2022-11-16T18:33:41.416Z,96905.84
2022-11-16T18:36:08.771Z,96905.03
2022-11-16T18:38:36.444Z,96894.56
2022-11-16T18:41:06.346Z,96891.06
2022-11-16T18:43:35.118Z,96888.03
2022-11-16T18:46:02.530Z,96885.81
2022-11-16T18:48:29.678Z,96881.97
2022-11-16T18:51:03.709Z,96885.88
2022-11-16T18:53:32.310Z,96885.28
2022-11-16T18:55:59.685Z,96882.38
2022-11-16T19:01:18.265Z,96866.22
2022-11-16T19:03:45.356Z,96862.34
2022-11-16T19:06:15.566Z,96875.34
2022-11-16T19:08:42.821Z,96869.84
2022-11-16T19:11:13.858Z,96870.50
2022-11-16T19:13:42.541Z,96865.63
2022-11-16T19:16:10.635Z,96861.38
2022-11-16T19:18:37.831Z,96855.66
2022-11-16T19:21:06.068Z,96853.44
2022-11-16T19:23:40.085Z,96863.88
2022-11-16T19:26:07.200Z,96856.47
2022-11-16T19:28:38.464Z,96855.22
2022-11-16T19:31:13.541Z,96860.97
2022-11-16T19:33:40.658Z,96858.16
2022-11-16T19:36:08.673Z,96862.47
2022-11-16T19:38:36.150Z,96857.13
2022-11-16T19:41:03.288Z,96848.31
2022-11-16T19:43:30.316Z,96846.28
2022-11-16T19:46:01.448Z,96844.22
2022-11-16T19:48:29.491Z,96849.56
2022-11-16T19:50:56.587Z,96844.22
2022-11-16T19:53:23.607Z,96836.66
2022-11-16T19:55:54.734Z,96834.03
2022-11-16T19:58:21.843Z,96828.13
2022-11-16T20:00:48.934Z,96820.59
2022-11-16T20:03:15.999Z,96825.59
2022-11-16T20:05:43.088Z,96823.38
2022-11-16T20:08:10.954Z,96820.72
2022-11-16T20:10:38.086Z,96820.25
2022-11-16T20:13:05.176Z,96826.00
2022-11-16T20:15:32.287Z,96826.81
2022-11-16T20:17:59.405Z,96827.25
2022-11-16T20:20:26.424Z,96823.53
2022-11-16T20:22:53.630Z,96837.09
2022-11-16T20:25:20.685Z,96827.69
2022-11-16T20:27:47.764Z,96837.94
2022-11-16T20:30:14.989Z,96831.63
2022-11-16T20:32:42.231Z,96826.72
2022-11-16T20:35:09.304Z,96823.03
2022-11-16T20:37:36.709Z,96817.69
2022-11-16T20:40:05.052Z,96832.06
2022-11-16T20:42:32.109Z,96831.28
2022-11-16T20:44:59.113Z,96832.13
2022-11-16T20:47:27.172Z,96829.22
2022-11-16T20:49:54.203Z,96834.56
2022-11-16T20:52:21.353Z,96832.72
2022-11-16T20:54:48.778Z,96838.06
2022-11-16T20:57:15.826Z,96838.06
2022-11-16T20:59:42.833Z,96836.00
2022-11-16T21:02:10.532Z,96838.66
2022-11-16T21:04:37.620Z,96830.06
2022-11-16T21:07:04.727Z,96822.06
2022-11-16T21:09:51.769Z,96816.72
2022-11-16T21:12:42.482Z,96806.66
2022-11-16T21:15:10.064Z,96818.72
2022-11-16T21:17:37.126Z,96815.91
2022-11-16T21:20:26.288Z,96815.06
2022-11-16T21:22:51.292Z,96808.09
2022-11-16T21:25:18.343Z,96810.00
2022-11-16T21:27:46.239Z,96811.03
2022-11-16T21:30:13.975Z,96806.31
2022-11-16T21:32:41.013Z,96818.19
2022-11-16T21:35:08.274Z,96820.03
2022-11-16T21:37:35.322Z,96815.56
2022-11-16T21:40:02.360Z,96818.88
2022-11-16T21:42:29.739Z,96819.09
2022-11-16T21:44:56.854Z,96818.50
2022-11-16T21:47:23.915Z,96818.50
2022-11-16T21:50:16.775Z,96817.28
2022-11-16T21:52:38.021Z,96810.59
2022-11-16T21:55:05.305Z,96812.69
2022-11-16T21:57:32.378Z,96790.13
2022-11-16T22:00:01.004Z,96781.31
2022-11-16T22:02:28.079Z,96779.66
2022-11-16T22:05:13.675Z,96774.13
2022-11-16T22:07:41.444Z,96770.69
2022-11-16T22:10:09.975Z,96777.06
2022-11-16T22:12:37.142Z,96772.75
2022-11-16T22:15:05.130Z,96778.09
2022-11-16T22:17:32.223Z,96771.16
2022-11-16T22:19:59.249Z,96761.13
2022-11-16T22:22:26.368Z,96772.59
2022-11-16T22:24:53.426Z,96765.03
2022-11-16T22:27:20.548Z,96754.81
2022-11-16T22:29:47.628Z,96765.47
2022-11-16T22:32:14.652Z,96751.09
2022-11-16T22:34:41.661Z,96751.09
2022-11-16T22:37:08.734Z,96757.25
2022-11-16T22:39:37.710Z,96757.06
2022-11-16T22:42:04.869Z,96753.94
2022-11-16T22:44:31.877Z,96758.44
2022-11-16T22:46:58.928Z,96743.28
2022-11-16T22:49:26.049Z,96742.44
2022-11-16T22:51:53.135Z,96739.56
2022-11-16T22:54:23.376Z,96731.59
2022-11-16T22:56:54.452Z,96722.34
2022-11-16T22:59:21.535Z,96721.53
2022-11-16T23:01:48.540Z,96728.50
2022-11-16T23:04:15.716Z,96712.50
2022-11-16T23:06:42.845Z,96716.78
2022-11-16T23:09:09.844Z,96707.31
2022-11-16T23:11:55.787Z,96699.34
2022-11-16T23:14:41.615Z,96696.88
2022-11-16T23:17:08.642Z,96700.34
2022-11-16T23:19:54.094Z,96700.16
2022-11-16T23:22:39.930Z,96689.50
2022-11-16T23:25:26.838Z,96695.63
2022-11-16T23:27:56.981Z,96697.84
2022-11-16T23:30:24.010Z,96699.69
2022-11-16T23:32:51.335Z,96700.97
2022-11-16T23:35:18.483Z,96695.63
2022-11-16T23:37:54.969Z,96685.41
2022-11-16T23:40:23.508Z,96676.59
2022-11-16T23:43:10.036Z,96677.41
2022-11-16T23:45:37.410Z,96667.75
2022-11-16T23:48:05.346Z,96669.41
2022-11-16T23:50:32.463Z,96667.75
2022-11-16T23:52:59.535Z,96667.19
2022-11-16T23:55:26.804Z,96668.22
2022-11-16T23:57:53.870Z,96660.44
